sensor_id;sensor_type;location;lat;lon;timestamp;temperature;humidity
61672;DHT22;47572;0.00000000;0.00000000;2022-09-09T00:00:17;22.40;66.30
61672;DHT22;47572;0.00000000;0.00000000;2022-09-09T00:02:45;22.40;66.40
61672;DHT22;47572;0.00000000;0.00000000;2022-09-09T00:06:13;22.40;66.30
61672;DHT22;47572;0.00000000;0.00000000;2022-09-09T00:08:07;22.40;66.30
61672;DHT22;47572;0.00000000;0.00000000;2022-09-09T00:10:38;22.40;66.30
61672;DHT22;47572;0.00000000;0.00000000;2022-09-09T00:21:18;22.40;66.30
61672;DHT22;47572;0.00000000;0.00000000;2022-09-09T00:24:09;22.40;66.20
61672;DHT22;47572;0.00000000;0.00000000;2022-09-09T00:26:59;22.30;66.20
61672;DHT22;47572;0.00000000;0.00000000;2022-09-09T00:30:32;22.30;66.10
61672;DHT22;47572;0.00000000;0.00000000;2022-09-09T00:32:55;22.30;66.20
61672;DHT22;47572;0.00000000;0.00000000;2022-09-09T00:35:51;22.30;66.10
61672;DHT22;47572;0.00000000;0.00000000;2022-09-09T00:38:42;22.30;66.10
61672;DHT22;47572;0.00000000;0.00000000;2022-09-09T00:44:25;22.30;66.10
61672;DHT22;47572;0.00000000;0.00000000;2022-09-09T00:56:16;22.30;66.10
61672;DHT22;47572;0.00000000;0.00000000;2022-09-09T01:01:50;22.30;66.00
61672;DHT22;47572;0.00000000;0.00000000;2022-09-09T01:04:36;22.30;66.00
61672;DHT22;47572;0.00000000;0.00000000;2022-09-09T01:07:22;22.20;65.90
61672;DHT22;47572;0.00000000;0.00000000;2022-09-09T01:10:11;22.20;65.90
61672;DHT22;47572;0.00000000;0.00000000;2022-09-09T01:13:04;22.20;65.90
61672;DHT22;47572;0.00000000;0.00000000;2022-09-09T01:15:53;22.20;65.90
61672;DHT22;47572;0.00000000;0.00000000;2022-09-09T01:18:40;22.20;65.90
61672;DHT22;47572;0.00000000;0.00000000;2022-09-09T01:27:01;22.20;65.90
61672;DHT22;47572;0.00000000;0.00000000;2022-09-09T01:29:47;22.20;65.90
61672;DHT22;47572;0.00000000;0.00000000;2022-09-09T01:38:11;22.20;65.80
61672;DHT22;47572;0.00000000;0.00000000;2022-09-09T01:40:57;22.20;65.80
61672;DHT22;47572;0.00000000;0.00000000;2022-09-09T01:43:43;22.20;65.80
61672;DHT22;47572;0.00000000;0.00000000;2022-09-09T01:46:29;22.20;65.80
61672;DHT22;47572;0.00000000;0.00000000;2022-09-09T01:49:16;22.20;65.80
61672;DHT22;47572;0.00000000;0.00000000;2022-09-09T01:52:01;22.20;65.70
61672;DHT22;47572;0.00000000;0.00000000;2022-09-09T01:54:48;22.20;65.80
61672;DHT22;47572;0.00000000;0.00000000;2022-09-09T01:57:38;22.20;65.80
61672;DHT22;47572;0.00000000;0.00000000;2022-09-09T02:00:25;22.20;65.70
61672;DHT22;47572;0.00000000;0.00000000;2022-09-09T02:06:00;22.20;65.70
61672;DHT22;47572;0.00000000;0.00000000;2022-09-09T02:08:49;22.10;65.70
61672;DHT22;47572;0.00000000;0.00000000;2022-09-09T02:11:35;22.10;65.70
61672;DHT22;47572;0.00000000;0.00000000;2022-09-09T02:14:23;22.10;65.60
61672;DHT22;47572;0.00000000;0.00000000;2022-09-09T02:17:10;22.10;65.60
61672;DHT22;47572;0.00000000;0.00000000;2022-09-09T02:20:05;22.10;65.60
61672;DHT22;47572;0.00000000;0.00000000;2022-09-09T02:22:51;22.10;65.70
61672;DHT22;47572;0.00000000;0.00000000;2022-09-09T02:25:38;22.10;65.60
61672;DHT22;47572;0.00000000;0.00000000;2022-09-09T02:28:26;22.10;65.60
61672;DHT22;47572;0.00000000;0.00000000;2022-09-09T02:31:14;22.10;65.50
61672;DHT22;47572;0.00000000;0.00000000;2022-09-09T02:34:00;22.10;65.60
61672;DHT22;47572;0.00000000;0.00000000;2022-09-09T02:36:46;22.10;65.50
61672;DHT22;47572;0.00000000;0.00000000;2022-09-09T02:39:33;22.10;65.60
61672;DHT22;47572;0.00000000;0.00000000;2022-09-09T02:42:19;22.10;65.60
61672;DHT22;47572;0.00000000;0.00000000;2022-09-09T02:45:04;22.10;65.50
61672;DHT22;47572;0.00000000;0.00000000;2022-09-09T02:47:53;22.10;65.50
61672;DHT22;47572;0.00000000;0.00000000;2022-09-09T02:53:56;22.10;65.50
61672;DHT22;47572;0.00000000;0.00000000;2022-09-09T02:56:46;22.10;65.50
61672;DHT22;47572;0.00000000;0.00000000;2022-09-09T02:59:35;22.10;65.50
61672;DHT22;47572;0.00000000;0.00000000;2022-09-09T03:02:21;22.10;65.50
61672;DHT22;47572;0.00000000;0.00000000;2022-09-09T03:05:06;22.10;65.40
61672;DHT22;47572;0.00000000;0.00000000;2022-09-09T03:07:52;22.10;65.40
61672;DHT22;47572;0.00000000;0.00000000;2022-09-09T03:10:38;22.00;65.40
61672;DHT22;47572;0.00000000;0.00000000;2022-09-09T03:13:23;22.00;65.40
61672;DHT22;47572;0.00000000;0.00000000;2022-09-09T03:16:10;22.00;65.40
61672;DHT22;47572;0.00000000;0.00000000;2022-09-09T03:18:56;22.00;65.30
61672;DHT22;47572;0.00000000;0.00000000;2022-09-09T03:21:41;22.00;65.30
61672;DHT22;47572;0.00000000;0.00000000;2022-09-09T03:24:27;22.00;65.30
61672;DHT22;47572;0.00000000;0.00000000;2022-09-09T03:27:13;22.00;65.30
61672;DHT22;47572;0.00000000;0.00000000;2022-09-09T03:29:59;22.00;65.30
61672;DHT22;47572;0.00000000;0.00000000;2022-09-09T03:32:49;22.00;65.30
61672;DHT22;47572;0.00000000;0.00000000;2022-09-09T03:35:34;22.00;65.30
61672;DHT22;47572;0.00000000;0.00000000;2022-09-09T03:38:20;22.00;65.30
61672;DHT22;47572;0.00000000;0.00000000;2022-09-09T03:41:06;22.00;65.20
61672;DHT22;47572;0.00000000;0.00000000;2022-09-09T03:43:53;22.00;65.30
61672;DHT22;47572;0.00000000;0.00000000;2022-09-09T03:46:39;22.00;65.20
61672;DHT22;47572;0.00000000;0.00000000;2022-09-09T03:49:24;22.00;65.30
61672;DHT22;47572;0.00000000;0.00000000;2022-09-09T03:52:11;22.00;65.30
61672;DHT22;47572;0.00000000;0.00000000;2022-09-09T03:54:57;22.00;65.30
61672;DHT22;47572;0.00000000;0.00000000;2022-09-09T03:57:43;22.00;65.30
61672;DHT22;47572;0.00000000;0.00000000;2022-09-09T04:00:29;22.00;65.30
61672;DHT22;47572;0.00000000;0.00000000;2022-09-09T04:03:15;22.00;65.20
61672;DHT22;47572;0.00000000;0.00000000;2022-09-09T04:06:02;22.00;65.20
61672;DHT22;47572;0.00000000;0.00000000;2022-09-09T04:08:48;21.90;65.10
61672;DHT22;47572;0.00000000;0.00000000;2022-09-09T04:11:34;21.90;65.20
61672;DHT22;47572;0.00000000;0.00000000;2022-09-09T04:14:20;21.90;65.10
61672;DHT22;47572;0.00000000;0.00000000;2022-09-09T04:17:06;21.90;65.10
61672;DHT22;47572;0.00000000;0.00000000;2022-09-09T04:19:52;21.90;65.20
61672;DHT22;47572;0.00000000;0.00000000;2022-09-09T04:22:37;21.90;65.20
61672;DHT22;47572;0.00000000;0.00000000;2022-09-09T04:25:24;21.90;65.10
61672;DHT22;47572;0.00000000;0.00000000;2022-09-09T04:28:09;21.90;65.10
61672;DHT22;47572;0.00000000;0.00000000;2022-09-09T04:30:55;21.90;65.10
61672;DHT22;47572;0.00000000;0.00000000;2022-09-09T04:33:42;21.90;65.10
61672;DHT22;47572;0.00000000;0.00000000;2022-09-09T04:36:27;21.90;65.10
61672;DHT22;47572;0.00000000;0.00000000;2022-09-09T04:39:13;21.90;65.10
61672;DHT22;47572;0.00000000;0.00000000;2022-09-09T04:41:59;21.90;65.10
61672;DHT22;47572;0.00000000;0.00000000;2022-09-09T04:44:45;21.90;65.10
61672;DHT22;47572;0.00000000;0.00000000;2022-09-09T04:47:31;21.90;65.10
61672;DHT22;47572;0.00000000;0.00000000;2022-09-09T04:50:17;21.90;65.10
61672;DHT22;47572;0.00000000;0.00000000;2022-09-09T04:53:04;21.90;65.10
61672;DHT22;47572;0.00000000;0.00000000;2022-09-09T04:55:50;21.90;65.10
61672;DHT22;47572;0.00000000;0.00000000;2022-09-09T04:58:37;21.90;65.10
61672;DHT22;47572;0.00000000;0.00000000;2022-09-09T05:01:23;21.90;65.10
61672;DHT22;47572;0.00000000;0.00000000;2022-09-09T05:04:09;21.90;65.10
61672;DHT22;47572;0.00000000;0.00000000;2022-09-09T05:06:55;21.90;65.10
61672;DHT22;47572;0.00000000;0.00000000;2022-09-09T05:09:41;21.90;65.00
61672;DHT22;47572;0.00000000;0.00000000;2022-09-09T05:12:26;21.90;65.10
61672;DHT22;47572;0.00000000;0.00000000;2022-09-09T05:15:12;21.90;65.10
61672;DHT22;47572;0.00000000;0.00000000;2022-09-09T05:17:58;21.90;65.10
61672;DHT22;47572;0.00000000;0.00000000;2022-09-09T05:20:45;21.80;65.10
61672;DHT22;47572;0.00000000;0.00000000;2022-09-09T05:23:31;21.80;65.10
61672;DHT22;47572;0.00000000;0.00000000;2022-09-09T05:26:17;21.80;65.10
61672;DHT22;47572;0.00000000;0.00000000;2022-09-09T05:29:03;21.80;65.00
61672;DHT22;47572;0.00000000;0.00000000;2022-09-09T05:31:50;21.80;65.00
61672;DHT22;47572;0.00000000;0.00000000;2022-09-09T05:34:35;21.80;65.10
61672;DHT22;47572;0.00000000;0.00000000;2022-09-09T05:37:22;21.80;65.10
61672;DHT22;47572;0.00000000;0.00000000;2022-09-09T05:40:09;21.80;65.10
61672;DHT22;47572;0.00000000;0.00000000;2022-09-09T05:42:59;21.80;65.00
61672;DHT22;47572;0.00000000;0.00000000;2022-09-09T05:45:44;21.80;65.10
61672;DHT22;47572;0.00000000;0.00000000;2022-09-09T05:48:33;21.80;65.00
61672;DHT22;47572;0.00000000;0.00000000;2022-09-09T05:51:23;21.80;65.00
61672;DHT22;47572;0.00000000;0.00000000;2022-09-09T05:54:09;21.80;65.00
61672;DHT22;47572;0.00000000;0.00000000;2022-09-09T05:56:55;21.80;65.10
61672;DHT22;47572;0.00000000;0.00000000;2022-09-09T05:59:41;21.80;65.00
61672;DHT22;47572;0.00000000;0.00000000;2022-09-09T06:02:27;21.80;65.00
61672;DHT22;47572;0.00000000;0.00000000;2022-09-09T06:05:13;21.70;64.90
61672;DHT22;47572;0.00000000;0.00000000;2022-09-09T06:07:58;21.80;65.00
61672;DHT22;47572;0.00000000;0.00000000;2022-09-09T06:10:44;21.80;65.00
61672;DHT22;47572;0.00000000;0.00000000;2022-09-09T06:13:30;21.80;65.00
61672;DHT22;47572;0.00000000;0.00000000;2022-09-09T06:16:16;21.80;65.00
61672;DHT22;47572;0.00000000;0.00000000;2022-09-09T06:19:02;21.80;65.00
61672;DHT22;47572;0.00000000;0.00000000;2022-09-09T06:21:48;21.80;65.10
61672;DHT22;47572;0.00000000;0.00000000;2022-09-09T06:24:35;21.70;65.00
61672;DHT22;47572;0.00000000;0.00000000;2022-09-09T06:27:21;21.70;64.90
61672;DHT22;47572;0.00000000;0.00000000;2022-09-09T06:30:07;21.70;64.90
61672;DHT22;47572;0.00000000;0.00000000;2022-09-09T06:32:55;21.70;64.90
61672;DHT22;47572;0.00000000;0.00000000;2022-09-09T06:35:40;21.70;65.00
61672;DHT22;47572;0.00000000;0.00000000;2022-09-09T06:38:26;21.70;65.10
61672;DHT22;47572;0.00000000;0.00000000;2022-09-09T06:41:12;21.70;65.10
61672;DHT22;47572;0.00000000;0.00000000;2022-09-09T06:43:58;21.70;65.10
61672;DHT22;47572;0.00000000;0.00000000;2022-09-09T06:46:47;21.70;65.20
61672;DHT22;47572;0.00000000;0.00000000;2022-09-09T06:49:33;21.70;65.30
61672;DHT22;47572;0.00000000;0.00000000;2022-09-09T06:52:20;21.70;65.30
61672;DHT22;47572;0.00000000;0.00000000;2022-09-09T06:55:06;21.70;65.60
61672;DHT22;47572;0.00000000;0.00000000;2022-09-09T06:57:51;21.70;65.50
61672;DHT22;47572;0.00000000;0.00000000;2022-09-09T07:00:38;21.70;65.50
61672;DHT22;47572;0.00000000;0.00000000;2022-09-09T07:03:24;21.70;65.50
61672;DHT22;47572;0.00000000;0.00000000;2022-09-09T07:06:13;21.70;65.50
61672;DHT22;47572;0.00000000;0.00000000;2022-09-09T07:09:01;21.70;65.40
61672;DHT22;47572;0.00000000;0.00000000;2022-09-09T07:11:50;21.70;65.50
61672;DHT22;47572;0.00000000;0.00000000;2022-09-09T07:14:38;21.70;65.50
61672;DHT22;47572;0.00000000;0.00000000;2022-09-09T07:17:24;21.60;65.80
61672;DHT22;47572;0.00000000;0.00000000;2022-09-09T07:20:10;21.60;65.80
61672;DHT22;47572;0.00000000;0.00000000;2022-09-09T07:22:56;21.60;65.70
61672;DHT22;47572;0.00000000;0.00000000;2022-09-09T07:25:44;21.60;65.70
61672;DHT22;47572;0.00000000;0.00000000;2022-09-09T07:28:30;21.60;66.00
61672;DHT22;47572;0.00000000;0.00000000;2022-09-09T07:31:20;21.70;66.20
61672;DHT22;47572;0.00000000;0.00000000;2022-09-09T07:34:06;21.70;66.30
61672;DHT22;47572;0.00000000;0.00000000;2022-09-09T07:36:52;21.70;66.70
61672;DHT22;47572;0.00000000;0.00000000;2022-09-09T07:39:38;21.70;66.60
61672;DHT22;47572;0.00000000;0.00000000;2022-09-09T07:42:24;21.70;66.30
61672;DHT22;47572;0.00000000;0.00000000;2022-09-09T07:45:09;21.70;66.30
61672;DHT22;47572;0.00000000;0.00000000;2022-09-09T07:47:55;21.70;66.50
61672;DHT22;47572;0.00000000;0.00000000;2022-09-09T07:50:42;21.70;66.60
61672;DHT22;47572;0.00000000;0.00000000;2022-09-09T07:53:27;21.70;66.40
61672;DHT22;47572;0.00000000;0.00000000;2022-09-09T07:56:14;21.70;66.60
61672;DHT22;47572;0.00000000;0.00000000;2022-09-09T07:59:02;21.70;66.90
61672;DHT22;47572;0.00000000;0.00000000;2022-09-09T08:01:51;21.80;66.80
61672;DHT22;47572;0.00000000;0.00000000;2022-09-09T08:04:39;21.80;67.10
61672;DHT22;47572;0.00000000;0.00000000;2022-09-09T08:07:25;21.80;67.00
61672;DHT22;47572;0.00000000;0.00000000;2022-09-09T08:10:11;21.80;66.80
61672;DHT22;47572;0.00000000;0.00000000;2022-09-09T08:12:57;21.80;66.60
61672;DHT22;47572;0.00000000;0.00000000;2022-09-09T08:15:42;21.80;66.80
61672;DHT22;47572;0.00000000;0.00000000;2022-09-09T08:18:29;21.90;66.70
61672;DHT22;47572;0.00000000;0.00000000;2022-09-09T08:21:15;21.80;66.60
61672;DHT22;47572;0.00000000;0.00000000;2022-09-09T08:24:03;21.90;66.60
61672;DHT22;47572;0.00000000;0.00000000;2022-09-09T08:26:49;21.90;66.80
61672;DHT22;47572;0.00000000;0.00000000;2022-09-09T08:29:35;21.80;66.70
61672;DHT22;47572;0.00000000;0.00000000;2022-09-09T08:32:20;21.90;66.70
61672;DHT22;47572;0.00000000;0.00000000;2022-09-09T08:35:06;21.90;66.60
61672;DHT22;47572;0.00000000;0.00000000;2022-09-09T08:37:53;21.90;66.60
61672;DHT22;47572;0.00000000;0.00000000;2022-09-09T08:40:40;22.00;66.60
61672;DHT22;47572;0.00000000;0.00000000;2022-09-09T08:43:29;22.00;66.40
61672;DHT22;47572;0.00000000;0.00000000;2022-09-09T08:49:06;22.00;66.60
61672;DHT22;47572;0.00000000;0.00000000;2022-09-09T08:51:57;22.00;66.50
61672;DHT22;47572;0.00000000;0.00000000;2022-09-09T08:54:43;22.00;66.60
61672;DHT22;47572;0.00000000;0.00000000;2022-09-09T08:57:29;22.00;66.50
61672;DHT22;47572;0.00000000;0.00000000;2022-09-09T09:00:17;22.00;66.60
61672;DHT22;47572;0.00000000;0.00000000;2022-09-09T09:12:23;22.10;66.20
61672;DHT22;47572;0.00000000;0.00000000;2022-09-09T09:15:14;22.20;66.10
61672;DHT22;47572;0.00000000;0.00000000;2022-09-09T09:18:05;22.20;66.20
61672;DHT22;47572;0.00000000;0.00000000;2022-09-09T09:21:03;22.20;66.10
61672;DHT22;47572;0.00000000;0.00000000;2022-09-09T09:23:55;22.20;66.10
61672;DHT22;47572;0.00000000;0.00000000;2022-09-09T09:26:42;22.30;66.10
61672;DHT22;47572;0.00000000;0.00000000;2022-09-09T09:29:28;22.30;66.00
61672;DHT22;47572;0.00000000;0.00000000;2022-09-09T09:32:14;22.30;66.00
61672;DHT22;47572;0.00000000;0.00000000;2022-09-09T09:35:02;22.30;65.80
61672;DHT22;47572;0.00000000;0.00000000;2022-09-09T09:37:50;22.40;65.80
61672;DHT22;47572;0.00000000;0.00000000;2022-09-09T09:40:36;22.40;65.90
61672;DHT22;47572;0.00000000;0.00000000;2022-09-09T09:43:24;22.40;65.80
61672;DHT22;47572;0.00000000;0.00000000;2022-09-09T09:46:20;22.40;65.80
61672;DHT22;47572;0.00000000;0.00000000;2022-09-09T09:49:09;22.40;65.80
61672;DHT22;47572;0.00000000;0.00000000;2022-09-09T09:51:59;22.40;65.70
61672;DHT22;47572;0.00000000;0.00000000;2022-09-09T09:54:45;22.40;65.70
61672;DHT22;47572;0.00000000;0.00000000;2022-09-09T09:57:31;22.40;65.70
61672;DHT22;47572;0.00000000;0.00000000;2022-09-09T10:00:18;22.40;65.80
61672;DHT22;47572;0.00000000;0.00000000;2022-09-09T10:03:13;22.40;65.80
61672;DHT22;47572;0.00000000;0.00000000;2022-09-09T10:06:04;22.50;65.80
61672;DHT22;47572;0.00000000;0.00000000;2022-09-09T10:08:50;22.40;65.50
61672;DHT22;47572;0.00000000;0.00000000;2022-09-09T10:11:57;22.50;65.60
61672;DHT22;47572;0.00000000;0.00000000;2022-09-09T10:14:52;22.50;65.60
61672;DHT22;47572;0.00000000;0.00000000;2022-09-09T10:17:44;22.50;65.60
61672;DHT22;47572;0.00000000;0.00000000;2022-09-09T10:38:16;22.40;65.80
61672;DHT22;47572;0.00000000;0.00000000;2022-09-09T10:47:04;22.40;65.80
61672;DHT22;47572;0.00000000;0.00000000;2022-09-09T10:55:51;22.40;66.10
61672;DHT22;47572;0.00000000;0.00000000;2022-09-09T10:58:40;22.40;66.10
61672;DHT22;47572;0.00000000;0.00000000;2022-09-09T11:01:29;22.40;66.20
61672;DHT22;47572;0.00000000;0.00000000;2022-09-09T11:04:20;22.40;67.10
61672;DHT22;47572;0.00000000;0.00000000;2022-09-09T11:07:08;22.40;66.20
61672;DHT22;47572;0.00000000;0.00000000;2022-09-09T11:09:58;22.30;66.10
61672;DHT22;47572;0.00000000;0.00000000;2022-09-09T11:12:46;22.30;66.10
61672;DHT22;47572;0.00000000;0.00000000;2022-09-09T11:15:39;22.30;66.10
61672;DHT22;47572;0.00000000;0.00000000;2022-09-09T11:18:26;22.40;66.30
61672;DHT22;47572;0.00000000;0.00000000;2022-09-09T11:21:31;22.40;66.10
61672;DHT22;47572;0.00000000;0.00000000;2022-09-09T11:24:20;22.30;66.10
61672;DHT22;47572;0.00000000;0.00000000;2022-09-09T11:27:15;22.40;66.30
61672;DHT22;47572;0.00000000;0.00000000;2022-09-09T11:30:15;22.40;66.30
61672;DHT22;47572;0.00000000;0.00000000;2022-09-09T11:33:07;22.40;66.30
61672;DHT22;47572;0.00000000;0.00000000;2022-09-09T11:42:26;22.30;66.20
61672;DHT22;47572;0.00000000;0.00000000;2022-09-09T11:45:11;22.30;66.20
61672;DHT22;47572;0.00000000;0.00000000;2022-09-09T11:48:04;22.30;66.20
61672;DHT22;47572;0.00000000;0.00000000;2022-09-09T11:50:58;22.40;66.20
61672;DHT22;47572;0.00000000;0.00000000;2022-09-09T11:53:48;22.40;66.20
61672;DHT22;47572;0.00000000;0.00000000;2022-09-09T11:59:27;22.40;66.10
61672;DHT22;47572;0.00000000;0.00000000;2022-09-09T12:02:17;22.40;66.10
61672;DHT22;47572;0.00000000;0.00000000;2022-09-09T12:07:52;22.40;66.20
61672;DHT22;47572;0.00000000;0.00000000;2022-09-09T12:10:40;22.40;66.10
61672;DHT22;47572;0.00000000;0.00000000;2022-09-09T12:13:26;22.40;66.00
61672;DHT22;47572;0.00000000;0.00000000;2022-09-09T12:16:27;22.40;66.00
61672;DHT22;47572;0.00000000;0.00000000;2022-09-09T12:19:20;22.40;66.10
61672;DHT22;47572;0.00000000;0.00000000;2022-09-09T12:31:02;22.40;66.10
61672;DHT22;47572;0.00000000;0.00000000;2022-09-09T12:33:50;22.40;66.10
61672;DHT22;47572;0.00000000;0.00000000;2022-09-09T12:36:36;22.40;66.10
61672;DHT22;47572;0.00000000;0.00000000;2022-09-09T12:39:27;22.40;66.10
61672;DHT22;47572;0.00000000;0.00000000;2022-09-09T12:42:16;22.40;66.20
61672;DHT22;47572;0.00000000;0.00000000;2022-09-09T12:45:03;22.40;66.10
61672;DHT22;47572;0.00000000;0.00000000;2022-09-09T12:50:59;22.40;66.20
61672;DHT22;47572;0.00000000;0.00000000;2022-09-09T12:53:45;22.40;66.10
61672;DHT22;47572;0.00000000;0.00000000;2022-09-09T12:56:32;22.40;66.10
61672;DHT22;47572;0.00000000;0.00000000;2022-09-09T12:59:34;22.30;66.10
61672;DHT22;47572;0.00000000;0.00000000;2022-09-09T13:02:21;22.40;66.20
61672;DHT22;47572;0.00000000;0.00000000;2022-09-09T13:05:15;22.40;66.10
61672;DHT22;47572;0.00000000;0.00000000;2022-09-09T13:08:02;22.40;66.10
61672;DHT22;47572;0.00000000;0.00000000;2022-09-09T13:10:53;22.40;66.10
61672;DHT22;47572;0.00000000;0.00000000;2022-09-09T13:13:41;22.40;67.00
61672;DHT22;47572;0.00000000;0.00000000;2022-09-09T13:16:34;22.40;66.30
61672;DHT22;47572;0.00000000;0.00000000;2022-09-09T13:19:20;22.40;66.20
61672;DHT22;47572;0.00000000;0.00000000;2022-09-09T13:22:20;22.40;66.20
61672;DHT22;47572;0.00000000;0.00000000;2022-09-09T13:25:18;22.40;66.20
61672;DHT22;47572;0.00000000;0.00000000;2022-09-09T13:28:04;22.40;66.10
61672;DHT22;47572;0.00000000;0.00000000;2022-09-09T13:30:57;22.40;66.30
61672;DHT22;47572;0.00000000;0.00000000;2022-09-09T13:33:46;22.40;66.20
61672;DHT22;47572;0.00000000;0.00000000;2022-09-09T13:36:33;22.40;66.10
61672;DHT22;47572;0.00000000;0.00000000;2022-09-09T13:39:20;22.40;66.20
61672;DHT22;47572;0.00000000;0.00000000;2022-09-09T13:42:06;22.50;66.20
61672;DHT22;47572;0.00000000;0.00000000;2022-09-09T13:44:52;22.50;66.10
61672;DHT22;47572;0.00000000;0.00000000;2022-09-09T13:47:38;22.50;66.00
61672;DHT22;47572;0.00000000;0.00000000;2022-09-09T13:50:25;22.50;66.10
61672;DHT22;47572;0.00000000;0.00000000;2022-09-09T13:53:11;22.50;66.10
61672;DHT22;47572;0.00000000;0.00000000;2022-09-09T13:55:57;22.50;66.00
61672;DHT22;47572;0.00000000;0.00000000;2022-09-09T13:58:43;22.50;65.90
61672;DHT22;47572;0.00000000;0.00000000;2022-09-09T14:01:29;22.60;66.00
61672;DHT22;47572;0.00000000;0.00000000;2022-09-09T14:04:15;22.60;65.90
61672;DHT22;47572;0.00000000;0.00000000;2022-09-09T14:07:02;22.60;65.90
61672;DHT22;47572;0.00000000;0.00000000;2022-09-09T14:09:48;22.60;65.90
61672;DHT22;47572;0.00000000;0.00000000;2022-09-09T14:12:35;22.60;65.80
61672;DHT22;47572;0.00000000;0.00000000;2022-09-09T14:15:21;22.60;65.80
61672;DHT22;47572;0.00000000;0.00000000;2022-09-09T14:18:09;22.60;65.80
61672;DHT22;47572;0.00000000;0.00000000;2022-09-09T14:20:55;22.60;65.70
61672;DHT22;47572;0.00000000;0.00000000;2022-09-09T14:23:41;22.60;66.50
61672;DHT22;47572;0.00000000;0.00000000;2022-09-09T14:26:27;22.60;65.70
61672;DHT22;47572;0.00000000;0.00000000;2022-09-09T14:29:15;22.60;65.80
61672;DHT22;47572;0.00000000;0.00000000;2022-09-09T14:32:00;22.50;65.80
61672;DHT22;47572;0.00000000;0.00000000;2022-09-09T14:34:46;22.60;65.90
61672;DHT22;47572;0.00000000;0.00000000;2022-09-09T14:37:34;22.50;66.80
61672;DHT22;47572;0.00000000;0.00000000;2022-09-09T14:40:20;22.50;66.00
61672;DHT22;47572;0.00000000;0.00000000;2022-09-09T14:43:06;22.50;66.00
61672;DHT22;47572;0.00000000;0.00000000;2022-09-09T14:45:52;22.50;66.00
61672;DHT22;47572;0.00000000;0.00000000;2022-09-09T14:48:38;22.50;65.90
61672;DHT22;47572;0.00000000;0.00000000;2022-09-09T14:51:26;22.50;66.10
61672;DHT22;47572;0.00000000;0.00000000;2022-09-09T14:54:13;22.50;65.90
61672;DHT22;47572;0.00000000;0.00000000;2022-09-09T14:57:00;22.50;65.90
61672;DHT22;47572;0.00000000;0.00000000;2022-09-09T14:59:45;22.50;66.00
61672;DHT22;47572;0.00000000;0.00000000;2022-09-09T15:02:31;22.50;66.00
61672;DHT22;47572;0.00000000;0.00000000;2022-09-09T15:05:17;22.40;65.90
61672;DHT22;47572;0.00000000;0.00000000;2022-09-09T15:07:57;22.50;66.00
61672;DHT22;47572;0.00000000;0.00000000;2022-09-09T15:10:24;22.40;66.00
61672;DHT22;47572;0.00000000;0.00000000;2022-09-09T15:12:52;22.40;66.00
61672;DHT22;47572;0.00000000;0.00000000;2022-09-09T15:15:39;22.40;66.00
61672;DHT22;47572;0.00000000;0.00000000;2022-09-09T15:18:05;22.40;66.00
61672;DHT22;47572;0.00000000;0.00000000;2022-09-09T15:20:30;22.40;66.00
61672;DHT22;47572;0.00000000;0.00000000;2022-09-09T15:22:56;22.40;66.10
61672;DHT22;47572;0.00000000;0.00000000;2022-09-09T15:25:22;22.40;66.10
61672;DHT22;47572;0.00000000;0.00000000;2022-09-09T15:27:48;22.40;66.10
61672;DHT22;47572;0.00000000;0.00000000;2022-09-09T15:30:13;22.40;66.20
61672;DHT22;47572;0.00000000;0.00000000;2022-09-09T15:32:39;22.40;66.10
61672;DHT22;47572;0.00000000;0.00000000;2022-09-09T15:35:05;22.40;66.10
61672;DHT22;47572;0.00000000;0.00000000;2022-09-09T15:37:30;22.40;66.00
61672;DHT22;47572;0.00000000;0.00000000;2022-09-09T15:39:56;22.50;66.10
61672;DHT22;47572;0.00000000;0.00000000;2022-09-09T15:42:24;22.40;66.10
61672;DHT22;47572;0.00000000;0.00000000;2022-09-09T15:44:50;22.40;66.10
61672;DHT22;47572;0.00000000;0.00000000;2022-09-09T15:47:16;22.40;66.10
61672;DHT22;47572;0.00000000;0.00000000;2022-09-09T15:49:41;22.40;66.00
61672;DHT22;47572;0.00000000;0.00000000;2022-09-09T15:52:08;22.50;66.00
61672;DHT22;47572;0.00000000;0.00000000;2022-09-09T15:54:35;22.50;66.10
61672;DHT22;47572;0.00000000;0.00000000;2022-09-09T15:57:04;22.50;66.10
61672;DHT22;47572;0.00000000;0.00000000;2022-09-09T15:59:30;22.50;67.00
61672;DHT22;47572;0.00000000;0.00000000;2022-09-09T16:01:56;22.50;66.10
61672;DHT22;47572;0.00000000;0.00000000;2022-09-09T16:04:25;22.50;66.10
61672;DHT22;47572;0.00000000;0.00000000;2022-09-09T16:06:59;22.50;66.10
61672;DHT22;47572;0.00000000;0.00000000;2022-09-09T16:09:25;22.50;66.00
61672;DHT22;47572;0.00000000;0.00000000;2022-09-09T16:11:52;22.50;66.00
61672;DHT22;47572;0.00000000;0.00000000;2022-09-09T16:14:19;22.50;66.00
61672;DHT22;47572;0.00000000;0.00000000;2022-09-09T16:16:45;22.50;66.00
61672;DHT22;47572;0.00000000;0.00000000;2022-09-09T16:19:11;22.50;66.10
61672;DHT22;47572;0.00000000;0.00000000;2022-09-09T16:21:39;22.50;66.00
61672;DHT22;47572;0.00000000;0.00000000;2022-09-09T16:24:05;22.50;66.20
61672;DHT22;47572;0.00000000;0.00000000;2022-09-09T16:26:32;22.50;66.20
61672;DHT22;47572;0.00000000;0.00000000;2022-09-09T16:28:58;22.40;66.30
61672;DHT22;47572;0.00000000;0.00000000;2022-09-09T16:31:25;22.40;66.40
61672;DHT22;47572;0.00000000;0.00000000;2022-09-09T16:33:52;22.50;66.60
61672;DHT22;47572;0.00000000;0.00000000;2022-09-09T16:36:19;22.50;66.70
61672;DHT22;47572;0.00000000;0.00000000;2022-09-09T16:38:45;22.40;66.60
61672;DHT22;47572;0.00000000;0.00000000;2022-09-09T16:41:11;22.40;66.60
61672;DHT22;47572;0.00000000;0.00000000;2022-09-09T16:43:37;22.40;66.60
61672;DHT22;47572;0.00000000;0.00000000;2022-09-09T16:46:10;22.50;66.70
61672;DHT22;47572;0.00000000;0.00000000;2022-09-09T16:48:36;22.50;66.80
61672;DHT22;47572;0.00000000;0.00000000;2022-09-09T16:51:06;22.40;66.70
61672;DHT22;47572;0.00000000;0.00000000;2022-09-09T16:53:32;22.40;66.80
61672;DHT22;47572;0.00000000;0.00000000;2022-09-09T16:56:04;22.40;66.80